KHLG/HLG METAR and TAF weather

Enter ICAO airport designator
Station Type Date Time Source
KHLG METAR 2019/02/16 02:53 UTC NOAA

KHLG 160253Z 28006KT 10SM CLR M01/M08 A2990 RMK AO2 SLP133 T10111083 53020


Station Type Date Time Source
KHLG Decoded METAR 2019/02/16 02:53 UTC NOAA

WHEELING OHIO COUNTY AIRPORT, WV, United States (KHLG) 40-10N 080-39W 372M
Feb 15, 2019 - 09:53 PM EST / 2019.02.16 0253 UTC
Wind: from the W (280 degrees) at 7 MPH (6 KT):0
Visibility: 10 mile(s):0
Sky conditions: clear
Temperature: 30.0 F (-1.1 C)
Windchill: 23 F (-5 C):1
Dew Point: 17.1 F (-8.3 C)
Relative Humidity: 58%
Pressure (altimeter): 29.9 in. Hg (1012 hPa)
Pressure tendency: 0.06 inches (2.0 hPa) higher than three hours ago
ob: KHLG 160253Z 28006KT 10SM CLR M01/M08 A2990 RMK AO2 SLP133 T10111083 53020
cycle: 3

Station Type Date Time Source
KHLG TAF 2019/02/15 18:24 UTC NOAA

TAF KHLG 151722Z 1518/1618 26012G25KT P6SM SCT025 SCT250
FM160000 29008KT P6SM BKN250
FM160600 32005KT P6SM BKN060
FM161100 36005KT P6SM BKN040
FM161600 36005KT P6SM SCT120


Example: see airport list